sensor_id;sensor_type;location;lat;lon;timestamp;P1;durP1;ratioP1;P2;durP2;ratioP2
77802;SDS011;66993;48.256;16.422;2023-04-25T00:03:55;3.2;;;2.3;;
77802;SDS011;66993;48.256;16.422;2023-04-25T00:08:57;3.8;;;3.1;;
77802;SDS011;66993;48.256;16.422;2023-04-25T00:13:58;3.7;;;2.3;;
77802;SDS011;66993;48.256;16.422;2023-04-25T00:18:59;3.6;;;2.2;;
77802;SDS011;66993;48.256;16.422;2023-04-25T00:24:00;4.4;;;2.3;;
77802;SDS011;66993;48.256;16.422;2023-04-25T00:29:02;3.8;;;2.1;;
77802;SDS011;66993;48.256;16.422;2023-04-25T00:34:03;3.8;;;2.4;;
77802;SDS011;66993;48.256;16.422;2023-04-25T00:39:05;4.6;;;2.5;;
77802;SDS011;66993;48.256;16.422;2023-04-25T00:44:06;3.7;;;2.2;;
77802;SDS011;66993;48.256;16.422;2023-04-25T00:49:07;4.8;;;2.2;;
77802;SDS011;66993;48.256;16.422;2023-04-25T00:54:08;3.3;;;2.0;;
77802;SDS011;66993;48.256;16.422;2023-04-25T00:59:10;3.5;;;2.8;;
77802;SDS011;66993;48.256;16.422;2023-04-25T01:04:11;3.7;;;2.3;;
77802;SDS011;66993;48.256;16.422;2023-04-25T01:09:12;4.0;;;2.5;;
77802;SDS011;66993;48.256;16.422;2023-04-25T01:14:14;5.0;;;2.2;;
77802;SDS011;66993;48.256;16.422;2023-04-25T01:19:16;3.3;;;2.3;;
77802;SDS011;66993;48.256;16.422;2023-04-25T01:24:16;4.3;;;2.8;;
77802;SDS011;66993;48.256;16.422;2023-04-25T01:29:18;3.9;;;2.7;;
77802;SDS011;66993;48.256;16.422;2023-04-25T01:34:19;3.8;;;2.6;;
77802;SDS011;66993;48.256;16.422;2023-04-25T01:39:20;3.9;;;2.4;;
77802;SDS011;66993;48.256;16.422;2023-04-25T01:44:21;5.4;;;2.5;;
77802;SDS011;66993;48.256;16.422;2023-04-25T01:49:23;4.1;;;2.7;;
77802;SDS011;66993;48.256;16.422;2023-04-25T01:54:24;3.5;;;2.8;;
77802;SDS011;66993;48.256;16.422;2023-04-25T01:59:25;4.5;;;2.7;;
77802;SDS011;66993;48.256;16.422;2023-04-25T02:04:27;3.8;;;2.6;;
77802;SDS011;66993;48.256;16.422;2023-04-25T02:09:29;5.2;;;2.6;;
77802;SDS011;66993;48.256;16.422;2023-04-25T02:14:29;3.6;;;3.1;;
77802;SDS011;66993;48.256;16.422;2023-04-25T02:19:31;4.5;;;3.0;;
77802;SDS011;66993;48.256;16.422;2023-04-25T02:24:32;4.5;;;3.0;;
77802;SDS011;66993;48.256;16.422;2023-04-25T02:29:33;4.6;;;2.8;;
77802;SDS011;66993;48.256;16.422;2023-04-25T02:34:34;4.1;;;2.8;;
77802;SDS011;66993;48.256;16.422;2023-04-25T02:39:36;4.8;;;3.1;;
77802;SDS011;66993;48.256;16.422;2023-04-25T02:44:37;3.9;;;2.9;;
77802;SDS011;66993;48.256;16.422;2023-04-25T02:49:38;4.7;;;2.9;;
77802;SDS011;66993;48.256;16.422;2023-04-25T02:54:40;4.6;;;2.8;;
77802;SDS011;66993;48.256;16.422;2023-04-25T02:59:41;5.3;;;3.0;;
77802;SDS011;66993;48.256;16.422;2023-04-25T03:04:42;5.7;;;3.4;;
77802;SDS011;66993;48.256;16.422;2023-04-25T03:09:44;5.9;;;3.5;;
77802;SDS011;66993;48.256;16.422;2023-04-25T03:14:45;6.1;;;3.0;;
77802;SDS011;66993;48.256;16.422;2023-04-25T03:19:46;4.6;;;2.8;;
77802;SDS011;66993;48.256;16.422;2023-04-25T03:24:48;4.9;;;2.9;;
77802;SDS011;66993;48.256;16.422;2023-04-25T03:29:49;4.4;;;3.4;;
77802;SDS011;66993;48.256;16.422;2023-04-25T03:34:50;5.6;;;3.3;;
77802;SDS011;66993;48.256;16.422;2023-04-25T03:39:52;5.7;;;3.3;;
77802;SDS011;66993;48.256;16.422;2023-04-25T03:44:53;4.9;;;3.1;;
77802;SDS011;66993;48.256;16.422;2023-04-25T03:49:54;5.8;;;2.9;;
77802;SDS011;66993;48.256;16.422;2023-04-25T03:54:55;4.2;;;3.1;;
77802;SDS011;66993;48.256;16.422;2023-04-25T03:59:57;5.4;;;3.4;;
77802;SDS011;66993;48.256;16.422;2023-04-25T04:04:58;4.9;;;3.4;;
77802;SDS011;66993;48.256;16.422;2023-04-25T04:09:59;4.9;;;2.9;;
77802;SDS011;66993;48.256;16.422;2023-04-25T04:15:01;5.1;;;3.3;;
77802;SDS011;66993;48.256;16.422;2023-04-25T04:20:03;5.3;;;3.9;;
77802;SDS011;66993;48.256;16.422;2023-04-25T04:25:04;6.3;;;3.6;;
77802;SDS011;66993;48.256;16.422;2023-04-25T04:30:05;6.1;;;4.0;;
77802;SDS011;66993;48.256;16.422;2023-04-25T04:35:06;6.1;;;3.5;;
77802;SDS011;66993;48.256;16.422;2023-04-25T04:40:08;5.2;;;3.7;;
77802;SDS011;66993;48.256;16.422;2023-04-25T04:45:09;7.9;;;4.5;;
77802;SDS011;66993;48.256;16.422;2023-04-25T04:50:10;7.0;;;4.6;;
77802;SDS011;66993;48.256;16.422;2023-04-25T04:55:11;6.5;;;4.2;;
77802;SDS011;66993;48.256;16.422;2023-04-25T05:00:13;6.2;;;3.8;;
77802;SDS011;66993;48.256;16.422;2023-04-25T05:05:14;6.5;;;4.2;;
77802;SDS011;66993;48.256;16.422;2023-04-25T05:10:16;6.0;;;4.1;;
77802;SDS011;66993;48.256;16.422;2023-04-25T05:15:16;7.7;;;5.1;;
77802;SDS011;66993;48.256;16.422;2023-04-25T05:20:18;6.6;;;4.5;;
77802;SDS011;66993;48.256;16.422;2023-04-25T05:25:19;7.4;;;4.9;;
77802;SDS011;66993;48.256;16.422;2023-04-25T05:30:20;7.5;;;5.5;;
77802;SDS011;66993;48.256;16.422;2023-04-25T05:35:21;7.4;;;5.5;;
77802;SDS011;66993;48.256;16.422;2023-04-25T05:40:23;6.7;;;5.0;;
77802;SDS011;66993;48.256;16.422;2023-04-25T05:45:24;6.7;;;4.5;;
77802;SDS011;66993;48.256;16.422;2023-04-25T05:50:26;7.1;;;3.6;;
77802;SDS011;66993;48.256;16.422;2023-04-25T05:55:27;6.8;;;4.2;;
77802;SDS011;66993;48.256;16.422;2023-04-25T06:00:28;7.4;;;4.1;;
77802;SDS011;66993;48.256;16.422;2023-04-25T06:05:29;7.1;;;4.1;;
77802;SDS011;66993;48.256;16.422;2023-04-25T06:10:31;5.4;;;3.5;;
77802;SDS011;66993;48.256;16.422;2023-04-25T06:15:32;6.5;;;3.4;;
77802;SDS011;66993;48.256;16.422;2023-04-25T06:20:34;6.0;;;3.3;;
77802;SDS011;66993;48.256;16.422;2023-04-25T06:25:34;5.6;;;3.4;;
77802;SDS011;66993;48.256;16.422;2023-04-25T06:30:36;5.6;;;3.2;;
77802;SDS011;66993;48.256;16.422;2023-04-25T06:35:37;4.8;;;2.9;;
77802;SDS011;66993;48.256;16.422;2023-04-25T06:40:38;5.1;;;3.5;;
77802;SDS011;66993;48.256;16.422;2023-04-25T06:45:40;5.9;;;3.1;;
77802;SDS011;66993;48.256;16.422;2023-04-25T06:50:41;5.9;;;3.6;;
77802;SDS011;66993;48.256;16.422;2023-04-25T06:55:42;6.5;;;3.3;;
77802;SDS011;66993;48.256;16.422;2023-04-25T07:00:44;5.6;;;3.3;;
77802;SDS011;66993;48.256;16.422;2023-04-25T07:05:45;5.1;;;2.9;;
77802;SDS011;66993;48.256;16.422;2023-04-25T07:10:46;4.7;;;3.1;;
77802;SDS011;66993;48.256;16.422;2023-04-25T07:15:47;6.4;;;3.9;;
77802;SDS011;66993;48.256;16.422;2023-04-25T07:20:49;7.1;;;3.7;;
77802;SDS011;66993;48.256;16.422;2023-04-25T07:25:50;6.3;;;4.1;;
77802;SDS011;66993;48.256;16.422;2023-04-25T07:30:52;5.3;;;3.4;;
77802;SDS011;66993;48.256;16.422;2023-04-25T07:35:53;7.0;;;3.9;;
77802;SDS011;66993;48.256;16.422;2023-04-25T07:40:54;6.5;;;4.3;;
77802;SDS011;66993;48.256;16.422;2023-04-25T07:45:56;7.2;;;4.4;;
77802;SDS011;66993;48.256;16.422;2023-04-25T07:50:57;7.5;;;4.1;;
77802;SDS011;66993;48.256;16.422;2023-04-25T07:55:58;5.4;;;3.7;;
77802;SDS011;66993;48.256;16.422;2023-04-25T08:00:59;6.4;;;3.6;;
77802;SDS011;66993;48.256;16.422;2023-04-25T08:06:01;5.8;;;3.9;;
77802;SDS011;66993;48.256;16.422;2023-04-25T08:11:02;5.0;;;3.7;;
77802;SDS011;66993;48.256;16.422;2023-04-25T08:16:03;7.1;;;3.5;;
77802;SDS011;66993;48.256;16.422;2023-04-25T08:21:04;5.4;;;3.3;;
77802;SDS011;66993;48.256;16.422;2023-04-25T08:26:06;5.1;;;3.4;;
77802;SDS011;66993;48.256;16.422;2023-04-25T08:31:07;5.2;;;3.9;;
77802;SDS011;66993;48.256;16.422;2023-04-25T08:36:08;5.2;;;3.6;;
77802;SDS011;66993;48.256;16.422;2023-04-25T08:41:10;5.6;;;3.3;;
77802;SDS011;66993;48.256;16.422;2023-04-25T08:46:11;4.6;;;3.0;;
77802;SDS011;66993;48.256;16.422;2023-04-25T08:51:14;6.1;;;2.9;;
77802;SDS011;66993;48.256;16.422;2023-04-25T08:56:14;6.2;;;3.3;;
77802;SDS011;66993;48.256;16.422;2023-04-25T09:01:15;5.4;;;3.5;;
77802;SDS011;66993;48.256;16.422;2023-04-25T09:06:16;5.5;;;3.4;;
77802;SDS011;66993;48.256;16.422;2023-04-25T09:11:18;6.8;;;4.1;;
77802;SDS011;66993;48.256;16.422;2023-04-25T09:16:19;7.8;;;4.2;;
77802;SDS011;66993;48.256;16.422;2023-04-25T09:21:21;5.3;;;3.5;;
77802;SDS011;66993;48.256;16.422;2023-04-25T09:26:22;4.7;;;3.2;;
77802;SDS011;66993;48.256;16.422;2023-04-25T09:31:23;4.6;;;3.3;;
77802;SDS011;66993;48.256;16.422;2023-04-25T09:36:26;5.5;;;2.7;;
77802;SDS011;66993;48.256;16.422;2023-04-25T09:41:25;4.0;;;2.4;;
77802;SDS011;66993;48.256;16.422;2023-04-25T09:46:32;5.4;;;3.0;;
77802;SDS011;66993;48.256;16.422;2023-04-25T09:51:28;4.9;;;3.0;;
77802;SDS011;66993;48.256;16.422;2023-04-25T09:56:29;6.5;;;3.6;;
77802;SDS011;66993;48.256;16.422;2023-04-25T10:01:31;4.0;;;2.0;;
77802;SDS011;66993;48.256;16.422;2023-04-25T10:06:32;7.6;;;3.4;;
77802;SDS011;66993;48.256;16.422;2023-04-25T10:11:33;5.2;;;3.1;;
77802;SDS011;66993;48.256;16.422;2023-04-25T10:16:35;5.8;;;3.2;;
77802;SDS011;66993;48.256;16.422;2023-04-25T10:21:36;4.7;;;2.6;;
77802;SDS011;66993;48.256;16.422;2023-04-25T10:26:38;4.2;;;2.7;;
77802;SDS011;66993;48.256;16.422;2023-04-25T10:36:40;2.8;;;1.7;;
77802;SDS011;66993;48.256;16.422;2023-04-25T10:41:46;3.3;;;1.7;;
77802;SDS011;66993;48.256;16.422;2023-04-25T10:46:44;2.4;;;1.8;;
77802;SDS011;66993;48.256;16.422;2023-04-25T10:51:43;6.6;;;2.2;;
77802;SDS011;66993;48.256;16.422;2023-04-25T10:56:45;3.3;;;1.8;;
77802;SDS011;66993;48.256;16.422;2023-04-25T11:01:46;3.1;;;1.7;;
77802;SDS011;66993;48.256;16.422;2023-04-25T11:07:00;3.5;;;1.8;;
77802;SDS011;66993;48.256;16.422;2023-04-25T11:11:53;3.6;;;1.9;;
77802;SDS011;66993;48.256;16.422;2023-04-25T11:16:52;3.5;;;2.0;;
77802;SDS011;66993;48.256;16.422;2023-04-25T11:21:54;3.5;;;1.9;;
77802;SDS011;66993;48.256;16.422;2023-04-25T11:26:52;3.1;;;2.0;;
77802;SDS011;66993;48.256;16.422;2023-04-25T11:31:54;4.6;;;2.7;;
77802;SDS011;66993;48.256;16.422;2023-04-25T11:36:56;4.6;;;3.0;;
77802;SDS011;66993;48.256;16.422;2023-04-25T11:41:56;4.3;;;2.4;;
77802;SDS011;66993;48.256;16.422;2023-04-25T11:46:58;3.1;;;2.2;;
77802;SDS011;66993;48.256;16.422;2023-04-25T11:51:59;3.8;;;2.0;;
77802;SDS011;66993;48.256;16.422;2023-04-25T11:57:00;3.2;;;2.5;;
77802;SDS011;66993;48.256;16.422;2023-04-25T12:02:01;3.4;;;2.0;;
77802;SDS011;66993;48.256;16.422;2023-04-25T12:07:03;5.4;;;1.9;;
77802;SDS011;66993;48.256;16.422;2023-04-25T12:12:04;3.4;;;1.6;;
77802;SDS011;66993;48.256;16.422;2023-04-25T12:17:05;3.2;;;1.9;;
77802;SDS011;66993;48.256;16.422;2023-04-25T12:27:08;4.2;;;1.7;;
77802;SDS011;66993;48.256;16.422;2023-04-25T12:32:09;3.1;;;1.8;;
77802;SDS011;66993;48.256;16.422;2023-04-25T12:37:10;2.8;;;1.7;;
77802;SDS011;66993;48.256;16.422;2023-04-25T12:42:12;3.6;;;1.7;;
77802;SDS011;66993;48.256;16.422;2023-04-25T12:47:13;2.7;;;1.8;;
77802;SDS011;66993;48.256;16.422;2023-04-25T12:52:14;3.0;;;1.8;;
77802;SDS011;66993;48.256;16.422;2023-04-25T12:57:16;3.4;;;1.7;;
77802;SDS011;66993;48.256;16.422;2023-04-25T13:02:17;3.5;;;1.6;;
77802;SDS011;66993;48.256;16.422;2023-04-25T13:07:18;3.1;;;1.5;;
77802;SDS011;66993;48.256;16.422;2023-04-25T13:12:19;3.0;;;1.5;;
77802;SDS011;66993;48.256;16.422;2023-04-25T13:17:21;2.6;;;1.5;;
77802;SDS011;66993;48.256;16.422;2023-04-25T13:22:22;2.5;;;1.6;;
77802;SDS011;66993;48.256;16.422;2023-04-25T13:27:23;1.9;;;1.4;;
77802;SDS011;66993;48.256;16.422;2023-04-25T13:32:24;2.8;;;1.4;;
77802;SDS011;66993;48.256;16.422;2023-04-25T13:37:26;2.5;;;1.5;;
77802;SDS011;66993;48.256;16.422;2023-04-25T13:42:27;2.2;;;1.4;;
77802;SDS011;66993;48.256;16.422;2023-04-25T13:47:28;2.2;;;1.3;;
77802;SDS011;66993;48.256;16.422;2023-04-25T13:52:30;2.0;;;1.3;;
77802;SDS011;66993;48.256;16.422;2023-04-25T13:57:31;2.4;;;1.4;;
77802;SDS011;66993;48.256;16.422;2023-04-25T14:02:32;2.6;;;1.3;;
77802;SDS011;66993;48.256;16.422;2023-04-25T14:07:34;2.5;;;1.4;;
77802;SDS011;66993;48.256;16.422;2023-04-25T14:12:35;3.4;;;1.5;;
77802;SDS011;66993;48.256;16.422;2023-04-25T14:17:36;2.8;;;1.8;;
77802;SDS011;66993;48.256;16.422;2023-04-25T14:22:37;3.9;;;2.3;;
77802;SDS011;66993;48.256;16.422;2023-04-25T14:27:39;5.4;;;3.0;;
77802;SDS011;66993;48.256;16.422;2023-04-25T14:32:40;3.8;;;3.0;;
77802;SDS011;66993;48.256;16.422;2023-04-25T14:37:41;4.5;;;3.0;;
77802;SDS011;66993;48.256;16.422;2023-04-25T14:42:43;3.0;;;1.7;;
77802;SDS011;66993;48.256;16.422;2023-04-25T14:47:44;3.3;;;1.6;;
77802;SDS011;66993;48.256;16.422;2023-04-25T14:52:45;2.5;;;1.9;;
77802;SDS011;66993;48.256;16.422;2023-04-25T14:57:47;3.8;;;1.7;;
77802;SDS011;66993;48.256;16.422;2023-04-25T15:02:48;2.8;;;1.6;;
77802;SDS011;66993;48.256;16.422;2023-04-25T15:07:49;3.1;;;1.6;;
77802;SDS011;66993;48.256;16.422;2023-04-25T15:12:51;4.8;;;2.1;;
77802;SDS011;66993;48.256;16.422;2023-04-25T15:17:52;4.3;;;2.6;;
77802;SDS011;66993;48.256;16.422;2023-04-25T15:22:53;3.6;;;2.2;;
77802;SDS011;66993;48.256;16.422;2023-04-25T15:27:54;3.1;;;2.0;;
77802;SDS011;66993;48.256;16.422;2023-04-25T15:32:56;3.3;;;1.7;;
77802;SDS011;66993;48.256;16.422;2023-04-25T15:37:57;3.8;;;1.7;;
77802;SDS011;66993;48.256;16.422;2023-04-25T15:42:58;2.6;;;1.7;;
77802;SDS011;66993;48.256;16.422;2023-04-25T15:48:00;3.7;;;1.6;;
77802;SDS011;66993;48.256;16.422;2023-04-25T15:53:01;3.0;;;1.6;;
77802;SDS011;66993;48.256;16.422;2023-04-25T15:58:02;3.5;;;1.9;;
77802;SDS011;66993;48.256;16.422;2023-04-25T16:03:03;2.9;;;1.6;;
77802;SDS011;66993;48.256;16.422;2023-04-25T16:08:05;2.5;;;1.8;;
77802;SDS011;66993;48.256;16.422;2023-04-25T16:13:06;2.3;;;1.7;;
77802;SDS011;66993;48.256;16.422;2023-04-25T16:18:07;2.1;;;1.5;;
77802;SDS011;66993;48.256;16.422;2023-04-25T16:23:08;2.7;;;1.6;;
77802;SDS011;66993;48.256;16.422;2023-04-25T16:28:10;3.1;;;1.9;;
77802;SDS011;66993;48.256;16.422;2023-04-25T16:33:11;2.5;;;1.8;;
77802;SDS011;66993;48.256;16.422;2023-04-25T16:38:13;2.4;;;1.6;;
77802;SDS011;66993;48.256;16.422;2023-04-25T16:43:14;2.8;;;1.8;;
77802;SDS011;66993;48.256;16.422;2023-04-25T16:48:15;2.5;;;1.7;;
77802;SDS011;66993;48.256;16.422;2023-04-25T16:53:16;2.9;;;1.8;;
77802;SDS011;66993;48.256;16.422;2023-04-25T16:58:18;3.3;;;1.8;;
77802;SDS011;66993;48.256;16.422;2023-04-25T17:03:19;3.7;;;2.0;;
77802;SDS011;66993;48.256;16.422;2023-04-25T17:08:21;2.7;;;1.7;;
77802;SDS011;66993;48.256;16.422;2023-04-25T17:13:21;2.4;;;1.8;;
77802;SDS011;66993;48.256;16.422;2023-04-25T17:18:23;3.7;;;2.0;;
77802;SDS011;66993;48.256;16.422;2023-04-25T17:23:24;3.0;;;2.2;;
77802;SDS011;66993;48.256;16.422;2023-04-25T17:28:25;3.8;;;1.9;;
77802;SDS011;66993;48.256;16.422;2023-04-25T17:33:26;3.4;;;1.9;;
77802;SDS011;66993;48.256;16.422;2023-04-25T17:38:28;3.6;;;2.0;;
77802;SDS011;66993;48.256;16.422;2023-04-25T17:43:29;3.7;;;2.3;;
77802;SDS011;66993;48.256;16.422;2023-04-25T17:48:30;4.7;;;2.3;;
77802;SDS011;66993;48.256;16.422;2023-04-25T17:53:32;3.7;;;2.3;;
77802;SDS011;66993;48.256;16.422;2023-04-25T17:58:33;3.8;;;2.6;;
77802;SDS011;66993;48.256;16.422;2023-04-25T18:03:34;4.5;;;2.5;;
77802;SDS011;66993;48.256;16.422;2023-04-25T18:08:35;3.6;;;2.3;;
77802;SDS011;66993;48.256;16.422;2023-04-25T18:13:37;3.5;;;2.4;;
77802;SDS011;66993;48.256;16.422;2023-04-25T18:18:38;3.2;;;2.6;;
77802;SDS011;66993;48.256;16.422;2023-04-25T18:23:39;3.4;;;2.5;;
77802;SDS011;66993;48.256;16.422;2023-04-25T18:28:41;3.0;;;2.1;;
77802;SDS011;66993;48.256;16.422;2023-04-25T18:33:42;3.7;;;2.5;;
77802;SDS011;66993;48.256;16.422;2023-04-25T18:38:43;3.8;;;2.5;;
77802;SDS011;66993;48.256;16.422;2023-04-25T18:43:45;4.7;;;2.6;;
77802;SDS011;66993;48.256;16.422;2023-04-25T18:48:46;4.1;;;2.8;;
77802;SDS011;66993;48.256;16.422;2023-04-25T18:53:47;3.2;;;2.1;;
77802;SDS011;66993;48.256;16.422;2023-04-25T18:58:48;3.0;;;2.3;;
77802;SDS011;66993;48.256;16.422;2023-04-25T19:03:50;3.2;;;2.4;;
77802;SDS011;66993;48.256;16.422;2023-04-25T19:08:51;4.1;;;2.1;;
77802;SDS011;66993;48.256;16.422;2023-04-25T19:13:52;3.0;;;2.4;;
77802;SDS011;66993;48.256;16.422;2023-04-25T19:18:54;2.9;;;2.0;;
77802;SDS011;66993;48.256;16.422;2023-04-25T19:23:56;3.4;;;2.3;;
77802;SDS011;66993;48.256;16.422;2023-04-25T19:29:02;3.3;;;2.4;;
77802;SDS011;66993;48.256;16.422;2023-04-25T19:33:57;2.9;;;2.1;;
77802;SDS011;66993;48.256;16.422;2023-04-25T19:38:59;3.1;;;2.1;;
77802;SDS011;66993;48.256;16.422;2023-04-25T19:44:01;3.6;;;2.1;;
77802;SDS011;66993;48.256;16.422;2023-04-25T19:49:01;3.4;;;2.3;;
77802;SDS011;66993;48.256;16.422;2023-04-25T19:54:03;3.1;;;2.2;;
77802;SDS011;66993;48.256;16.422;2023-04-25T19:59:04;3.7;;;2.0;;
77802;SDS011;66993;48.256;16.422;2023-04-25T20:04:06;3.1;;;2.2;;
77802;SDS011;66993;48.256;16.422;2023-04-25T20:09:06;3.3;;;2.3;;
77802;SDS011;66993;48.256;16.422;2023-04-25T20:14:08;4.1;;;2.7;;
77802;SDS011;66993;48.256;16.422;2023-04-25T20:19:09;3.6;;;2.5;;
77802;SDS011;66993;48.256;16.422;2023-04-25T20:24:10;3.9;;;2.5;;
77802;SDS011;66993;48.256;16.422;2023-04-25T20:29:11;4.1;;;2.9;;
77802;SDS011;66993;48.256;16.422;2023-04-25T20:34:14;3.7;;;2.5;;
77802;SDS011;66993;48.256;16.422;2023-04-25T20:39:14;4.2;;;2.7;;
77802;SDS011;66993;48.256;16.422;2023-04-25T20:44:16;4.7;;;3.6;;
77802;SDS011;66993;48.256;16.422;2023-04-25T20:49:16;6.9;;;3.2;;
77802;SDS011;66993;48.256;16.422;2023-04-25T20:54:18;4.6;;;3.3;;
77802;SDS011;66993;48.256;16.422;2023-04-25T20:59:19;5.3;;;3.1;;
77802;SDS011;66993;48.256;16.422;2023-04-25T21:04:20;5.2;;;3.7;;
77802;SDS011;66993;48.256;16.422;2023-04-25T21:09:21;4.8;;;3.7;;
77802;SDS011;66993;48.256;16.422;2023-04-25T21:14:23;7.0;;;4.2;;
77802;SDS011;66993;48.256;16.422;2023-04-25T21:19:24;5.8;;;3.9;;
77802;SDS011;66993;48.256;16.422;2023-04-25T21:24:26;5.4;;;3.6;;
77802;SDS011;66993;48.256;16.422;2023-04-25T21:29:26;6.8;;;4.1;;
77802;SDS011;66993;48.256;16.422;2023-04-25T21:34:28;6.5;;;4.1;;
77802;SDS011;66993;48.256;16.422;2023-04-25T21:39:29;6.0;;;3.8;;
77802;SDS011;66993;48.256;16.422;2023-04-25T21:44:30;5.7;;;3.8;;
77802;SDS011;66993;48.256;16.422;2023-04-25T21:49:32;4.8;;;3.4;;
77802;SDS011;66993;48.256;16.422;2023-04-25T21:54:33;5.2;;;3.4;;
77802;SDS011;66993;48.256;16.422;2023-04-25T21:59:35;6.4;;;3.5;;
77802;SDS011;66993;48.256;16.422;2023-04-25T22:04:35;4.8;;;3.1;;
77802;SDS011;66993;48.256;16.422;2023-04-25T22:09:37;5.2;;;3.4;;
77802;SDS011;66993;48.256;16.422;2023-04-25T22:14:38;6.1;;;4.1;;
77802;SDS011;66993;48.256;16.422;2023-04-25T22:19:39;5.5;;;3.6;;
77802;SDS011;66993;48.256;16.422;2023-04-25T22:24:40;5.7;;;4.3;;
77802;SDS011;66993;48.256;16.422;2023-04-25T22:29:42;5.9;;;4.3;;
77802;SDS011;66993;48.256;16.422;2023-04-25T22:34:43;6.9;;;4.4;;
77802;SDS011;66993;48.256;16.422;2023-04-25T22:39:44;8.2;;;5.4;;
77802;SDS011;66993;48.256;16.422;2023-04-25T22:44:46;10.7;;;6.0;;
77802;SDS011;66993;48.256;16.422;2023-04-25T22:49:47;9.0;;;6.6;;
77802;SDS011;66993;48.256;16.422;2023-04-25T22:54:48;8.9;;;6.1;;
77802;SDS011;66993;48.256;16.422;2023-04-25T22:59:53;9.8;;;6.7;;
77802;SDS011;66993;48.256;16.422;2023-04-25T23:09:59;9.3;;;6.8;;
77802;SDS011;66993;48.256;16.422;2023-04-25T23:15:02;10.2;;;6.9;;
77802;SDS011;66993;48.256;16.422;2023-04-25T23:19:54;11.8;;;7.1;;
77802;SDS011;66993;48.256;16.422;2023-04-25T23:24:56;10.9;;;6.8;;
77802;SDS011;66993;48.256;16.422;2023-04-25T23:29:57;9.1;;;6.5;;
77802;SDS011;66993;48.256;16.422;2023-04-25T23:34:58;10.6;;;6.8;;
77802;SDS011;66993;48.256;16.422;2023-04-25T23:40:00;9.9;;;6.7;;
77802;SDS011;66993;48.256;16.422;2023-04-25T23:45:01;11.8;;;6.6;;
77802;SDS011;66993;48.256;16.422;2023-04-25T23:50:02;12.1;;;6.9;;
77802;SDS011;66993;48.256;16.422;2023-04-25T23:55:04;12.3;;;7.3;;
